Time,TemperatureF,DewpointF,PressureIn,WindDirection,WindDirectionDegrees,WindSpeedMPH,WindSpeedGustMPH,Humidity,HourlyPrecipIn,Conditions,Clouds,dailyrainin,SolarRadiationWatts/m^2,SoftwareType,DateUTC
2013-02-25 00:02:00,47.0,35.4,30.23,NNW,330,0.0,1.0,64,0.00,,,0.00,0,HR-IXP-WINDi_r2_v1.2,2013-02-25 08:02:00,
2013-02-25 00:07:00,47.0,35.4,30.23,NNW,330,0.0,0.0,64,0.00,,,0.00,0,HR-IXP-WINDi_r2_v1.2,2013-02-25 08:07:00,
2013-02-25 00:12:00,46.8,35.2,30.23,NNW,330,0.0,1.0,64,0.00,,,0.00,0,HR-IXP-WINDi_r2_v1.2,2013-02-25 08:12:00,
2013-02-25 00:17:00,46.3,34.8,30.23,NNW,330,0.0,1.0,64,0.00,,,0.00,0,HR-IXP-WINDi_r2_v1.2,2013-02-25 08:17:00,
2013-02-25 00:22:00,46.2,35.0,30.23,NNW,330,0.0,1.0,65,0.00,,,0.00,0,HR-IXP-WINDi_r2_v1.2,2013-02-25 08:22:00,
2013-02-25 00:27:00,45.9,34.8,30.23,NNW,330,0.0,1.0,65,0.00,,,0.00,0,HR-IXP-WINDi_r2_v1.2,2013-02-25 08:27:00,
2013-02-25 00:32:00,45.5,34.4,30.23,NNW,330,0.0,0.0,65,0.00,,,0.00,0,HR-IXP-WINDi_r2_v1.2,2013-02-25 08:32:00,
2013-02-25 00:38:00,45.8,35.1,30.23,NNW,330,0.0,1.0,66,0.00,,,0.00,0,HR-IXP-WINDi_r2_v1.2,2013-02-25 08:38:00,
2013-02-25 00:43:00,44.9,33.8,30.23,NNW,330,0.0,1.0,65,0.00,,,0.00,0,HR-IXP-WINDi_r2_v1.2,2013-02-25 08:43:00,
2013-02-25 00:48:00,45.3,35.0,30.23,NNW,330,0.0,2.0,67,0.00,,,0.00,0,HR-IXP-WINDi_r2_v1.2,2013-02-25 08:48:00,
2013-02-25 00:53:00,45.5,34.8,30.24,NNW,330,0.0,2.0,66,0.00,,,0.00,0,HR-IXP-WINDi_r2_v1.2,2013-02-25 08:53:00,
2013-02-25 00:59:00,46.0,34.9,30.24,NNW,330,0.0,2.0,65,0.00,,,0.00,0,HR-IXP-WINDi_r2_v1.2,2013-02-25 08:59:00,
2013-02-25 01:04:00,46.3,34.4,30.24,NNW,330,1.0,2.0,63,0.00,,,0.00,0,HR-IXP-WINDi_r2_v1.2,2013-02-25 09:04:00,
2013-02-25 01:09:00,46.0,34.1,30.24,NNW,330,1.0,2.0,63,0.00,,,0.00,0,HR-IXP-WINDi_r2_v1.2,2013-02-25 09:09:00,
2013-02-25 01:15:00,45.0,33.5,30.24,NNW,330,0.0,2.0,64,0.00,,,0.00,0,HR-IXP-WINDi_r2_v1.2,2013-02-25 09:15:00,
2013-02-25 01:20:00,45.5,34.0,30.24,NNW,330,0.0,1.0,64,0.00,,,0.00,0,HR-IXP-WINDi_r2_v1.2,2013-02-25 09:20:00,
2013-02-25 01:25:00,45.3,33.8,30.24,NNW,330,0.0,0.0,64,0.00,,,0.00,0,HR-IXP-WINDi_r2_v1.2,2013-02-25 09:25:00,
2013-02-25 01:30:00,44.9,33.4,30.24,NNW,330,0.0,1.0,64,0.00,,,0.00,0,HR-IXP-WINDi_r2_v1.2,2013-02-25 09:30:00,
2013-02-25 01:35:00,44.7,33.6,30.24,NNW,330,0.0,1.0,65,0.00,,,0.00,0,HR-IXP-WINDi_r2_v1.2,2013-02-25 09:35:00,
2013-02-25 01:40:00,44.7,33.6,30.24,NNW,330,0.0,1.0,65,0.00,,,0.00,0,HR-IXP-WINDi_r2_v1.2,2013-02-25 09:40:00,
2013-02-25 01:46:00,44.4,33.3,30.24,NNW,330,0.0,0.0,65,0.00,,,0.00,0,HR-IXP-WINDi_r2_v1.2,2013-02-25 09:46:00,
2013-02-25 01:51:00,44.4,33.3,30.24,NNW,330,0.0,1.0,65,0.00,,,0.00,0,HR-IXP-WINDi_r2_v1.2,2013-02-25 09:51:00,
2013-02-25 01:56:00,43.9,32.9,30.23,NNW,330,0.0,1.0,65,0.00,,,0.00,0,HR-IXP-WINDi_r2_v1.2,2013-02-25 09:56:00,
2013-02-25 02:01:00,44.0,33.3,30.23,NNW,330,0.0,1.0,66,0.00,,,0.00,0,HR-IXP-WINDi_r2_v1.2,2013-02-25 10:01:00,
2013-02-25 02:06:00,44.1,33.1,30.23,NNW,330,0.0,1.0,65,0.00,,,0.00,0,HR-IXP-WINDi_r2_v1.2,2013-02-25 10:06:00,
2013-02-25 02:11:00,44.0,32.6,30.23,NNW,330,0.0,0.0,64,0.00,,,0.00,0,HR-IXP-WINDi_r2_v1.2,2013-02-25 10:11:00,
2013-02-25 02:16:00,43.8,33.2,30.23,NNW,330,0.0,0.0,66,0.00,,,0.00,0,HR-IXP-WINDi_r2_v1.2,2013-02-25 10:16:00,
2013-02-25 02:21:00,43.2,32.2,30.23,NNW,330,1.0,2.0,65,0.00,,,0.00,0,HR-IXP-WINDi_r2_v1.2,2013-02-25 10:21:00,
2013-02-25 02:27:00,42.2,31.6,30.23,NNW,332,2.0,3.0,66,0.00,,,0.00,0,HR-IXP-WINDi_r2_v1.2,2013-02-25 10:27:00,
2013-02-25 02:32:00,42.4,31.4,30.22,NNE,15,3.0,3.0,65,0.00,,,0.00,0,HR-IXP-WINDi_r2_v1.2,2013-02-25 10:32:00,
2013-02-25 02:37:00,42.7,31.3,30.22,NNE,19,0.0,3.0,64,0.00,,,0.00,0,HR-IXP-WINDi_r2_v1.2,2013-02-25 10:37:00,
2013-02-25 02:42:00,43.7,31.5,30.23,NNE,19,0.0,3.0,62,0.00,,,0.00,0,HR-IXP-WINDi_r2_v1.2,2013-02-25 10:42:00,
2013-02-25 02:47:00,44.0,31.0,30.23,NNE,19,0.0,2.0,60,0.00,,,0.00,0,HR-IXP-WINDi_r2_v1.2,2013-02-25 10:47:00,
2013-02-25 02:52:00,44.0,31.0,30.23,NNE,19,0.0,2.0,60,0.00,,,0.00,0,HR-IXP-WINDi_r2_v1.2,2013-02-25 10:52:00,
2013-02-25 02:58:00,44.2,30.8,30.23,NNE,19,0.0,1.0,59,0.00,,,0.00,0,HR-IXP-WINDi_r2_v1.2,2013-02-25 10:58:00,
2013-02-25 03:03:00,44.1,31.1,30.23,NNE,19,0.0,2.0,60,0.00,,,0.00,0,HR-IXP-WINDi_r2_v1.2,2013-02-25 11:03:00,
2013-02-25 03:08:00,43.8,31.2,30.23,NNE,19,1.0,2.0,61,0.00,,,0.00,0,HR-IXP-WINDi_r2_v1.2,2013-02-25 11:08:00,
2013-02-25 03:13:00,43.8,31.2,30.23,NNE,19,0.0,1.0,61,0.00,,,0.00,0,HR-IXP-WINDi_r2_v1.2,2013-02-25 11:13:00,
2013-02-25 03:18:00,43.6,31.4,30.23,NNE,19,0.0,1.0,62,0.00,,,0.00,0,HR-IXP-WINDi_r2_v1.2,2013-02-25 11:18:00,
2013-02-25 03:24:00,43.3,31.5,30.23,NNE,19,0.0,1.0,63,0.00,,,0.00,0,HR-IXP-WINDi_r2_v1.2,2013-02-25 11:24:00,
2013-02-25 03:29:00,42.8,31.4,30.23,NNE,19,0.0,1.0,64,0.00,,,0.00,0,HR-IXP-WINDi_r2_v1.2,2013-02-25 11:29:00,
2013-02-25 03:34:00,42.1,31.2,30.23,NNE,19,1.0,2.0,65,0.00,,,0.00,0,HR-IXP-WINDi_r2_v1.2,2013-02-25 11:34:00,
2013-02-25 03:39:00,41.9,31.3,30.23,NNE,19,0.0,2.0,66,0.00,,,0.00,0,HR-IXP-WINDi_r2_v1.2,2013-02-25 11:39:00,
2013-02-25 03:44:00,41.8,31.2,30.23,NNE,19,0.0,2.0,66,0.00,,,0.00,0,HR-IXP-WINDi_r2_v1.2,2013-02-25 11:44:00,
2013-02-25 03:50:00,41.8,31.6,30.23,NNE,19,0.0,0.0,67,0.00,,,0.00,0,HR-IXP-WINDi_r2_v1.2,2013-02-25 11:50:00,
2013-02-25 03:55:00,41.5,31.3,30.23,NNE,19,0.0,0.0,67,0.00,,,0.00,0,HR-IXP-WINDi_r2_v1.2,2013-02-25 11:55:00,
2013-02-25 04:00:00,41.6,31.4,30.23,NNE,19,1.0,1.0,67,0.00,,,0.00,0,HR-IXP-WINDi_r2_v1.2,2013-02-25 12:00:00,
2013-02-25 04:05:00,41.8,31.6,30.23,NNE,19,0.0,1.0,67,0.00,,,0.00,0,HR-IXP-WINDi_r2_v1.2,2013-02-25 12:05:00,
2013-02-25 04:10:00,41.2,31.0,30.23,NNE,19,1.0,2.0,67,0.00,,,0.00,0,HR-IXP-WINDi_r2_v1.2,2013-02-25 12:10:00,
2013-02-25 04:16:00,41.1,31.3,30.23,NNE,19,0.0,2.0,68,0.00,,,0.00,0,HR-IXP-WINDi_r2_v1.2,2013-02-25 12:16:00,
2013-02-25 04:21:00,41.3,31.1,30.23,NNE,19,0.0,2.0,67,0.00,,,0.00,0,HR-IXP-WINDi_r2_v1.2,2013-02-25 12:21:00,
2013-02-25 04:26:00,41.6,31.4,30.23,NNE,19,0.0,1.0,67,0.00,,,0.00,0,HR-IXP-WINDi_r2_v1.2,2013-02-25 12:26:00,
2013-02-25 04:31:00,41.6,30.7,30.23,NNE,19,0.0,0.0,65,0.00,,,0.00,0,HR-IXP-WINDi_r2_v1.2,2013-02-25 12:31:00,
2013-02-25 04:36:00,41.2,30.7,30.23,NNE,19,0.0,1.0,66,0.00,,,0.00,0,HR-IXP-WINDi_r2_v1.2,2013-02-25 12:36:00,
2013-02-25 04:42:00,41.4,30.9,30.23,NNE,19,0.0,1.0,66,0.00,,,0.00,0,HR-IXP-WINDi_r2_v1.2,2013-02-25 12:42:00,
2013-02-25 04:47:00,41.5,30.6,30.23,NNE,19,0.0,0.0,65,0.00,,,0.00,0,HR-IXP-WINDi_r2_v1.2,2013-02-25 12:47:00,
2013-02-25 04:52:00,41.5,30.6,30.24,NNE,19,0.0,0.0,65,0.00,,,0.00,0,HR-IXP-WINDi_r2_v1.2,2013-02-25 12:52:00,
2013-02-25 04:58:00,41.4,30.1,30.24,NNE,19,0.0,0.0,64,0.00,,,0.00,0,HR-IXP-WINDi_r2_v1.2,2013-02-25 12:58:00,
2013-02-25 05:03:00,41.0,29.7,30.24,NNE,19,0.0,1.0,64,0.00,,,0.00,0,HR-IXP-WINDi_r2_v1.2,2013-02-25 13:03:00,
2013-02-25 05:08:00,41.1,29.8,30.24,NNE,19,0.0,1.0,64,0.00,,,0.00,0,HR-IXP-WINDi_r2_v1.2,2013-02-25 13:08:00,
2013-02-25 05:13:00,41.0,29.7,30.24,NNE,19,0.0,1.0,64,0.00,,,0.00,0,HR-IXP-WINDi_r2_v1.2,2013-02-25 13:13:00,
2013-02-25 05:18:00,40.6,29.4,30.23,NNE,19,0.0,1.0,64,0.00,,,0.00,0,HR-IXP-WINDi_r2_v1.2,2013-02-25 13:18:00,
2013-02-25 05:23:00,41.4,30.9,30.23,NNE,19,0.0,1.0,66,0.00,,,0.00,0,HR-IXP-WINDi_r2_v1.2,2013-02-25 13:23:00,
2013-02-25 05:28:00,41.5,30.2,30.24,NNE,19,0.0,0.0,64,0.00,,,0.00,0,HR-IXP-WINDi_r2_v1.2,2013-02-25 13:28:00,
2013-02-25 05:34:00,41.2,29.5,30.24,NNE,19,0.0,0.0,63,0.00,,,0.00,0,HR-IXP-WINDi_r2_v1.2,2013-02-25 13:34:00,
2013-02-25 05:39:00,41.6,29.1,30.24,NNE,19,0.0,1.0,61,0.00,,,0.00,0,HR-IXP-WINDi_r2_v1.2,2013-02-25 13:39:00,
2013-02-25 05:44:00,41.7,28.8,30.23,NNE,19,0.0,1.0,60,0.00,,,0.00,0,HR-IXP-WINDi_r2_v1.2,2013-02-25 13:44:00,
2013-02-25 05:49:00,41.4,28.5,30.23,NNE,19,0.0,1.0,60,0.00,,,0.00,0,HR-IXP-WINDi_r2_v1.2,2013-02-25 13:49:00,
2013-02-25 05:54:00,40.9,28.5,30.23,NNE,19,0.0,0.0,61,0.00,,,0.00,0,HR-IXP-WINDi_r2_v1.2,2013-02-25 13:54:00,
2013-02-25 06:00:00,41.0,29.0,30.23,NNE,19,0.0,0.0,62,0.00,,,0.00,0,HR-IXP-WINDi_r2_v1.2,2013-02-25 14:00:00,
2013-02-25 06:05:00,40.3,29.1,30.23,NNE,19,0.0,1.0,64,0.00,,,0.00,0,HR-IXP-WINDi_r2_v1.2,2013-02-25 14:05:00,
2013-02-25 06:10:00,39.5,28.7,30.23,NNE,19,0.0,1.0,65,0.00,,,0.00,0,HR-IXP-WINDi_r2_v1.2,2013-02-25 14:10:00,
2013-02-25 06:15:00,39.8,29.0,30.24,NNE,19,0.0,1.0,65,0.00,,,0.00,0,HR-IXP-WINDi_r2_v1.2,2013-02-25 14:15:00,
2013-02-25 06:20:00,40.4,29.9,30.24,NNE,19,0.0,0.0,66,0.00,,,0.00,0,HR-IXP-WINDi_r2_v1.2,2013-02-25 14:20:00,
2013-02-25 06:25:00,40.4,29.5,30.24,NNE,19,0.0,0.0,65,0.00,,,0.00,5,HR-IXP-WINDi_r2_v1.2,2013-02-25 14:25:00,
2013-02-25 06:31:00,40.2,30.1,30.24,NNE,19,0.0,0.0,67,0.00,,,0.00,7,HR-IXP-WINDi_r2_v1.2,2013-02-25 14:31:00,
2013-02-25 06:36:00,40.4,30.3,30.24,NNE,19,0.0,0.0,67,0.00,,,0.00,11,HR-IXP-WINDi_r2_v1.2,2013-02-25 14:36:00,
2013-02-25 06:41:00,40.6,29.7,30.23,NNE,19,0.0,0.0,65,0.00,,,0.00,14,HR-IXP-WINDi_r2_v1.2,2013-02-25 14:41:00,
2013-02-25 06:46:00,40.5,29.6,30.24,NNE,19,0.0,0.0,65,0.00,,,0.00,16,HR-IXP-WINDi_r2_v1.2,2013-02-25 14:46:00,
2013-02-25 06:51:00,40.7,30.2,30.24,NNE,19,0.0,1.0,66,0.00,,,0.00,25,HR-IXP-WINDi_r2_v1.2,2013-02-25 14:51:00,
2013-02-25 06:57:00,41.7,29.6,30.24,NNE,19,0.0,1.0,62,0.00,,,0.00,33,HR-IXP-WINDi_r2_v1.2,2013-02-25 14:57:00,
2013-02-25 07:02:00,43.1,28.9,30.24,NNE,19,0.0,0.0,57,0.00,,,0.00,40,HR-IXP-WINDi_r2_v1.2,2013-02-25 15:02:00,
2013-02-25 07:07:00,43.7,29.0,30.25,NNE,19,0.0,0.0,56,0.00,,,0.00,53,HR-IXP-WINDi_r2_v1.2,2013-02-25 15:07:00,
2013-02-25 07:13:00,44.5,27.9,30.25,NNE,19,0.0,1.0,52,0.00,,,0.00,60,HR-IXP-WINDi_r2_v1.2,2013-02-25 15:13:00,
2013-02-25 07:18:00,45.1,28.5,30.25,NNE,19,0.0,1.0,52,0.00,,,0.00,67,HR-IXP-WINDi_r2_v1.2,2013-02-25 15:18:00,
2013-02-25 07:23:00,45.9,27.8,30.24,NNE,19,0.0,1.0,49,0.00,,,0.00,77,HR-IXP-WINDi_r2_v1.2,2013-02-25 15:23:00,
2013-02-25 07:28:00,46.5,28.3,30.25,NNE,19,2.0,2.0,49,0.00,,,0.00,86,HR-IXP-WINDi_r2_v1.2,2013-02-25 15:28:00,
2013-02-25 07:33:00,46.6,27.9,30.25,NNE,19,2.0,2.0,48,0.00,,,0.00,91,HR-IXP-WINDi_r2_v1.2,2013-02-25 15:33:00,
2013-02-25 07:39:00,47.2,28.0,30.25,NNE,19,1.0,2.0,47,0.00,,,0.00,114,HR-IXP-WINDi_r2_v1.2,2013-02-25 15:39:00,
2013-02-25 07:44:00,48.0,28.2,30.25,NNE,31,1.0,3.0,46,0.00,,,0.00,125,HR-IXP-WINDi_r2_v1.2,2013-02-25 15:44:00,
2013-02-25 07:49:00,48.7,27.7,30.25,NE,35,2.0,4.0,44,0.00,,,0.00,132,HR-IXP-WINDi_r2_v1.2,2013-02-25 15:49:00,
2013-02-25 07:54:00,49.6,27.4,30.25,NE,35,0.0,4.0,42,0.00,,,0.00,139,HR-IXP-WINDi_r2_v1.2,2013-02-25 15:54:00,
2013-02-25 08:00:00,50.4,26.4,30.25,NE,35,3.0,4.0,39,0.00,,,0.00,144,HR-IXP-WINDi_r2_v1.2,2013-02-25 16:00:00,
2013-02-25 08:05:00,51.0,26.9,30.25,NE,34,3.0,4.0,39,0.00,,,0.00,151,HR-IXP-WINDi_r2_v1.2,2013-02-25 16:05:00,
2013-02-25 08:10:00,51.7,26.9,30.25,NNE,33,2.0,4.0,38,0.00,,,0.00,160,HR-IXP-WINDi_r2_v1.2,2013-02-25 16:10:00,
2013-02-25 08:15:00,52.2,26.7,30.25,NNE,28,4.0,4.0,37,0.00,,,0.00,171,HR-IXP-WINDi_r2_v1.2,2013-02-25 16:15:00,
2013-02-25 08:20:00,52.5,27.0,30.25,NNE,19,3.0,5.0,37,0.00,,,0.00,185,HR-IXP-WINDi_r2_v1.2,2013-02-25 16:20:00,
2013-02-25 08:26:00,53.2,26.9,30.25,NNE,29,2.0,5.0,36,0.00,,,0.00,197,HR-IXP-WINDi_r2_v1.2,2013-02-25 16:26:00,
2013-02-25 08:31:00,54.0,27.6,30.25,NE,36,3.0,4.0,36,0.00,,,0.00,211,HR-IXP-WINDi_r2_v1.2,2013-02-25 16:31:00,
2013-02-25 08:36:00,54.4,27.3,30.25,NE,34,2.0,5.0,35,0.00,,,0.00,227,HR-IXP-WINDi_r2_v1.2,2013-02-25 16:36:00,
2013-02-25 08:41:00,55.1,28.6,30.25,NE,34,3.0,5.0,36,0.00,,,0.00,246,HR-IXP-WINDi_r2_v1.2,2013-02-25 16:41:00,
2013-02-25 08:46:00,55.7,28.4,30.25,NNW,346,3.0,3.0,35,0.00,,,0.00,264,HR-IXP-WINDi_r2_v1.2,2013-02-25 16:46:00,
2013-02-25 08:51:00,55.8,29.9,30.24,NNE,13,2.0,5.0,37,0.00,,,0.00,281,HR-IXP-WINDi_r2_v1.2,2013-02-25 16:51:00,
2013-02-25 08:56:00,56.0,30.7,30.24,North,9,2.0,5.0,38,0.00,,,0.00,304,HR-IXP-WINDi_r2_v1.2,2013-02-25 16:56:00,
2013-02-25 09:02:00,56.8,31.4,30.24,North,5,2.0,5.0,38,0.00,,,0.00,322,HR-IXP-WINDi_r2_v1.2,2013-02-25 17:02:00,
2013-02-25 09:07:00,57.3,30.6,30.24,NNE,22,3.0,5.0,36,0.00,,,0.00,343,HR-IXP-WINDi_r2_v1.2,2013-02-25 17:07:00,
2013-02-25 09:12:00,57.2,32.4,30.24,North,5,2.0,5.0,39,0.00,,,0.00,355,HR-IXP-WINDi_r2_v1.2,2013-02-25 17:12:00,
2013-02-25 09:17:00,58.3,32.1,30.24,NNE,21,4.0,5.0,37,0.00,,,0.00,357,HR-IXP-WINDi_r2_v1.2,2013-02-25 17:17:00,
2013-02-25 09:22:00,59.5,33.2,30.24,NE,38,2.0,5.0,37,0.00,,,0.00,327,HR-IXP-WINDi_r2_v1.2,2013-02-25 17:22:00,
2013-02-25 09:27:00,58.6,33.7,30.24,NW,317,3.0,4.0,39,0.00,,,0.00,257,HR-IXP-WINDi_r2_v1.2,2013-02-25 17:27:00,
2013-02-25 09:33:00,58.8,33.9,30.23,NNW,344,1.0,5.0,39,0.00,,,0.00,236,HR-IXP-WINDi_r2_v1.2,2013-02-25 17:33:00,
2013-02-25 09:38:00,60.9,34.4,30.23,NW,324,3.0,5.0,37,0.00,,,0.00,294,HR-IXP-WINDi_r2_v1.2,2013-02-25 17:38:00,
2013-02-25 09:43:00,59.9,33.5,30.23,North,350,2.0,4.0,37,0.00,,,0.00,339,HR-IXP-WINDi_r2_v1.2,2013-02-25 17:43:00,
2013-02-25 09:48:00,60.5,34.1,30.23,NE,36,3.0,4.0,37,0.00,,,0.00,381,HR-IXP-WINDi_r2_v1.2,2013-02-25 17:48:00,
2013-02-25 09:53:00,62.3,35.0,30.23,NNE,32,0.0,4.0,36,0.00,,,0.00,478,HR-IXP-WINDi_r2_v1.2,2013-02-25 17:53:00,
2013-02-25 09:59:00,61.6,31.4,30.23,NW,310,0.0,4.0,32,0.00,,,0.00,566,HR-IXP-WINDi_r2_v1.2,2013-02-25 17:59:00,
2013-02-25 10:04:00,62.3,32.0,30.23,WNW,282,0.0,3.0,32,0.00,,,0.00,589,HR-IXP-WINDi_r2_v1.2,2013-02-25 18:04:00,
2013-02-25 10:09:00,61.9,32.5,30.23,NNW,347,3.0,3.0,33,0.00,,,0.00,603,HR-IXP-WINDi_r2_v1.2,2013-02-25 18:09:00,
2013-02-25 10:14:00,63.5,32.3,30.23,NNW,342,1.0,3.0,31,0.00,,,0.00,615,HR-IXP-WINDi_r2_v1.2,2013-02-25 18:14:00,
2013-02-25 10:19:00,63.4,33.8,30.23,West,272,2.0,4.0,33,0.00,,,0.00,612,HR-IXP-WINDi_r2_v1.2,2013-02-25 18:19:00,
2013-02-25 10:25:00,62.2,29.5,30.23,WNW,287,2.0,4.0,29,0.00,,,0.00,570,HR-IXP-WINDi_r2_v1.2,2013-02-25 18:25:00,
2013-02-25 10:30:00,62.3,31.3,30.23,WNW,287,1.0,4.0,31,0.00,,,0.00,519,HR-IXP-WINDi_r2_v1.2,2013-02-25 18:30:00,
2013-02-25 10:35:00,64.1,31.2,30.23,WSW,240,3.0,4.0,29,0.00,,,0.00,520,HR-IXP-WINDi_r2_v1.2,2013-02-25 18:35:00,
2013-02-25 10:40:00,63.2,30.4,30.23,SW,221,2.0,4.0,29,0.00,,,0.00,577,HR-IXP-WINDi_r2_v1.2,2013-02-25 18:40:00,
2013-02-25 10:45:00,63.2,30.4,30.23,WSW,240,3.0,4.0,29,0.00,,,0.00,645,HR-IXP-WINDi_r2_v1.2,2013-02-25 18:45:00,
2013-02-25 10:51:00,63.6,30.7,30.23,WSW,239,3.0,5.0,29,0.00,,,0.00,673,HR-IXP-WINDi_r2_v1.2,2013-02-25 18:51:00,
2013-02-25 10:56:00,63.9,31.8,30.23,SSW,194,5.0,6.0,30,0.00,,,0.00,679,HR-IXP-WINDi_r2_v1.2,2013-02-25 18:56:00,
2013-02-25 11:01:00,63.9,32.7,30.22,SSW,194,1.0,7.0,31,0.00,,,0.00,682,HR-IXP-WINDi_r2_v1.2,2013-02-25 19:01:00,
2013-02-25 11:06:00,64.9,34.3,30.22,South,181,1.0,7.0,32,0.00,,,0.00,691,HR-IXP-WINDi_r2_v1.2,2013-02-25 19:06:00,
2013-02-25 11:11:00,65.8,33.5,30.22,WSW,255,1.0,4.0,30,0.00,,,0.00,693,HR-IXP-WINDi_r2_v1.2,2013-02-25 19:11:00,
2013-02-25 11:16:00,64.7,32.5,30.22,SW,235,3.0,6.0,30,0.00,,,0.00,698,HR-IXP-WINDi_r2_v1.2,2013-02-25 19:16:00,
2013-02-25 11:22:00,65.0,35.9,30.21,West,262,3.0,6.0,34,0.00,,,0.00,703,HR-IXP-WINDi_r2_v1.2,2013-02-25 19:22:00,
2013-02-25 11:27:00,65.4,34.7,30.21,SSW,198,3.0,8.0,32,0.00,,,0.00,708,HR-IXP-WINDi_r2_v1.2,2013-02-25 19:27:00,
2013-02-25 11:32:00,65.6,35.7,30.21,South,188,2.0,8.0,33,0.00,,,0.00,717,HR-IXP-WINDi_r2_v1.2,2013-02-25 19:32:00,
2013-02-25 11:37:00,66.1,32.0,30.21,SW,218,3.0,7.0,28,0.00,,,0.00,721,HR-IXP-WINDi_r2_v1.2,2013-02-25 19:37:00,
2013-02-25 11:44:00,65.5,27.7,30.21,SW,218,4.0,10.0,24,0.00,,,0.00,726,HR-IXP-WINDi_r2_v1.2,2013-02-25 19:44:00,
2013-02-25 11:49:00,65.7,27.9,30.21,SW,227,8.0,10.0,24,0.00,,,0.00,729,HR-IXP-WINDi_r2_v1.2,2013-02-25 19:49:00,
2013-02-25 11:54:00,65.5,30.6,30.21,SW,234,5.0,8.0,27,0.00,,,0.00,728,HR-IXP-WINDi_r2_v1.2,2013-02-25 19:54:00,
2013-02-25 11:59:00,66.5,33.2,30.20,WSW,254,3.0,8.0,29,0.00,,,0.00,728,HR-IXP-WINDi_r2_v1.2,2013-02-25 19:59:00,
2013-02-25 12:05:00,65.7,33.4,30.20,SSE,159,3.0,9.0,30,0.00,,,0.00,729,HR-IXP-WINDi_r2_v1.2,2013-02-25 20:05:00,
2013-02-25 12:10:00,66.0,27.1,30.20,SSW,192,2.0,9.0,23,0.00,,,0.00,731,HR-IXP-WINDi_r2_v1.2,2013-02-25 20:10:00,
2013-02-25 12:15:00,66.5,31.5,30.20,SW,222,3.0,9.0,27,0.00,,,0.00,731,HR-IXP-WINDi_r2_v1.2,2013-02-25 20:15:00,
2013-02-25 12:20:00,66.2,30.3,30.19,SSW,196,8.0,9.0,26,0.00,,,0.00,729,HR-IXP-WINDi_r2_v1.2,2013-02-25 20:20:00,
2013-02-25 12:25:00,65.6,28.8,30.19,SW,220,4.0,9.0,25,0.00,,,0.00,728,HR-IXP-WINDi_r2_v1.2,2013-02-25 20:25:00,
2013-02-25 12:30:00,65.4,28.7,30.19,SW,230,7.0,9.0,25,0.00,,,0.00,726,HR-IXP-WINDi_r2_v1.2,2013-02-25 20:30:00,
2013-02-25 12:36:00,65.9,28.1,30.18,WSW,247,6.0,8.0,24,0.00,,,0.00,721,HR-IXP-WINDi_r2_v1.2,2013-02-25 20:36:00,
2013-02-25 12:41:00,65.7,27.9,30.18,SW,227,7.0,9.0,24,0.00,,,0.00,721,HR-IXP-WINDi_r2_v1.2,2013-02-25 20:41:00,
2013-02-25 12:46:00,65.6,29.8,30.18,SW,222,3.0,9.0,26,0.00,,,0.00,715,HR-IXP-WINDi_r2_v1.2,2013-02-25 20:46:00,
2013-02-25 12:51:00,66.5,28.6,30.18,WSW,257,4.0,10.0,24,0.00,,,0.00,714,HR-IXP-WINDi_r2_v1.2,2013-02-25 20:51:00,
2013-02-25 12:56:00,65.6,30.7,30.18,SW,219,1.0,10.0,27,0.00,,,0.00,708,HR-IXP-WINDi_r2_v1.2,2013-02-25 20:56:00,
2013-02-25 13:01:00,66.2,31.2,30.17,WSW,250,3.0,9.0,27,0.00,,,0.00,701,HR-IXP-WINDi_r2_v1.2,2013-02-25 21:01:00,
2013-02-25 13:07:00,65.9,31.9,30.17,SSW,196,3.0,7.0,28,0.00,,,0.00,694,HR-IXP-WINDi_r2_v1.2,2013-02-25 21:07:00,
2013-02-25 13:14:00,66.3,31.3,30.17,SSW,206,4.0,9.0,27,0.00,,,0.00,687,HR-IXP-WINDi_r2_v1.2,2013-02-25 21:14:00,
2013-02-25 13:19:00,65.6,30.7,30.17,SSW,194,8.0,11.0,27,0.00,,,0.00,680,HR-IXP-WINDi_r2_v1.2,2013-02-25 21:19:00,
2013-02-25 13:24:00,65.3,29.5,30.17,South,187,1.0,11.0,26,0.00,,,0.00,673,HR-IXP-WINDi_r2_v1.2,2013-02-25 21:24:00,
2013-02-25 13:29:00,66.5,31.5,30.17,SW,234,5.0,10.0,27,0.00,,,0.00,663,HR-IXP-WINDi_r2_v1.2,2013-02-25 21:29:00,
2013-02-25 13:34:00,65.6,31.6,30.17,SSW,192,5.0,11.0,28,0.00,,,0.00,650,HR-IXP-WINDi_r2_v1.2,2013-02-25 21:34:00,
2013-02-25 13:40:00,65.7,31.7,30.16,SW,232,5.0,11.0,28,0.00,,,0.00,645,HR-IXP-WINDi_r2_v1.2,2013-02-25 21:40:00,
2013-02-25 13:45:00,65.6,30.7,30.16,SW,223,6.0,9.0,27,0.00,,,0.00,635,HR-IXP-WINDi_r2_v1.2,2013-02-25 21:45:00,
2013-02-25 13:50:00,65.7,32.6,30.15,SSW,210,4.0,9.0,29,0.00,,,0.00,624,HR-IXP-WINDi_r2_v1.2,2013-02-25 21:50:00,
2013-02-25 13:55:00,65.4,31.4,30.15,SW,217,10.0,12.0,28,0.00,,,0.00,612,HR-IXP-WINDi_r2_v1.2,2013-02-25 21:55:00,
2013-02-25 14:01:00,65.4,31.4,30.16,South,186,3.0,12.0,28,0.00,,,0.00,605,HR-IXP-WINDi_r2_v1.2,2013-02-25 22:01:00,
2013-02-25 14:06:00,65.8,31.8,30.15,WSW,238,6.0,12.0,28,0.00,,,0.00,596,HR-IXP-WINDi_r2_v1.2,2013-02-25 22:06:00,
2013-02-25 14:11:00,65.9,31.9,30.16,SSW,194,7.0,10.0,28,0.00,,,0.00,584,HR-IXP-WINDi_r2_v1.2,2013-02-25 22:11:00,
2013-02-25 14:16:00,65.7,32.6,30.16,SW,232,8.0,11.0,29,0.00,,,0.00,573,HR-IXP-WINDi_r2_v1.2,2013-02-25 22:16:00,
2013-02-25 14:21:00,65.3,33.1,30.16,SW,218,5.0,11.0,30,0.00,,,0.00,563,HR-IXP-WINDi_r2_v1.2,2013-02-25 22:21:00,
2013-02-25 14:27:00,65.2,33.0,30.16,SSW,205,10.0,11.0,30,0.00,,,0.00,552,HR-IXP-WINDi_r2_v1.2,2013-02-25 22:27:00,
2013-02-25 14:32:00,64.6,32.4,30.15,SSW,205,9.0,12.0,30,0.00,,,0.00,540,HR-IXP-WINDi_r2_v1.2,2013-02-25 22:32:00,
2013-02-25 14:37:00,64.5,33.2,30.16,SW,219,4.0,12.0,31,0.00,,,0.00,529,HR-IXP-WINDi_r2_v1.2,2013-02-25 22:37:00,
2013-02-25 14:42:00,64.4,33.9,30.15,South,175,4.0,10.0,32,0.00,,,0.00,515,HR-IXP-WINDi_r2_v1.2,2013-02-25 22:42:00,
2013-02-25 14:47:00,65.0,35.9,30.15,SSW,198,7.0,9.0,34,0.00,,,0.00,489,HR-IXP-WINDi_r2_v1.2,2013-02-25 22:47:00,
2013-02-25 14:53:00,64.4,35.4,30.15,SW,225,6.0,12.0,34,0.00,,,0.00,459,HR-IXP-WINDi_r2_v1.2,2013-02-25 22:53:00,
2013-02-25 14:58:00,64.5,36.2,30.15,SSW,195,4.0,12.0,35,0.00,,,0.00,420,HR-IXP-WINDi_r2_v1.2,2013-02-25 22:58:00,
2013-02-25 15:03:00,65.0,36.7,30.14,SW,231,5.0,11.0,35,0.00,,,0.00,352,HR-IXP-WINDi_r2_v1.2,2013-02-25 23:03:00,
2013-02-25 15:09:00,64.0,36.5,30.15,SW,234,6.0,11.0,36,0.00,,,0.00,214,HR-IXP-WINDi_r2_v1.2,2013-02-25 23:09:00,
2013-02-25 15:14:00,64.1,35.9,30.15,SSW,209,4.0,11.0,35,0.00,,,0.00,229,HR-IXP-WINDi_r2_v1.2,2013-02-25 23:14:00,
2013-02-25 15:19:00,64.0,36.5,30.15,SSW,207,5.0,12.0,36,0.00,,,0.00,274,HR-IXP-WINDi_r2_v1.2,2013-02-25 23:19:00,
2013-02-25 15:24:00,63.8,38.3,30.14,SSW,199,7.0,12.0,39,0.00,,,0.00,294,HR-IXP-WINDi_r2_v1.2,2013-02-25 23:24:00,
2013-02-25 15:29:00,63.4,38.6,30.14,SSE,165,7.0,15.0,40,0.00,,,0.00,258,HR-IXP-WINDi_r2_v1.2,2013-02-25 23:29:00,
2013-02-25 15:34:00,63.2,40.3,30.14,SW,232,6.0,15.0,43,0.00,,,0.00,260,HR-IXP-WINDi_r2_v1.2,2013-02-25 23:34:00,
2013-02-25 15:39:00,62.7,42.1,30.14,SW,233,6.0,13.0,47,0.00,,,0.00,313,HR-IXP-WINDi_r2_v1.2,2013-02-25 23:39:00,
2013-02-25 15:45:00,62.3,41.8,30.14,SSW,213,4.0,11.0,47,0.00,,,0.00,316,HR-IXP-WINDi_r2_v1.2,2013-02-25 23:45:00,
2013-02-25 15:50:00,62.4,41.3,30.14,SSW,210,6.0,12.0,46,0.00,,,0.00,309,HR-IXP-WINDi_r2_v1.2,2013-02-25 23:50:00,
2013-02-25 15:55:00,62.4,41.9,30.14,SSW,211,6.0,12.0,47,0.00,,,0.00,301,HR-IXP-WINDi_r2_v1.2,2013-02-25 23:55:00,
2013-02-25 16:00:00,62.2,41.1,30.14,SW,223,7.0,11.0,46,0.00,,,0.00,288,HR-IXP-WINDi_r2_v1.2,2013-02-26 00:00:00,
2013-02-25 16:05:00,62.0,41.5,30.13,South,173,5.0,11.0,47,0.00,,,0.00,274,HR-IXP-WINDi_r2_v1.2,2013-02-26 00:05:00,
2013-02-25 16:10:00,62.1,42.7,30.13,SSW,207,4.0,11.0,49,0.00,,,0.00,260,HR-IXP-WINDi_r2_v1.2,2013-02-26 00:10:00,
2013-02-25 16:15:00,62.0,42.6,30.13,South,180,3.0,8.0,49,0.00,,,0.00,243,HR-IXP-WINDi_r2_v1.2,2013-02-26 00:15:00,
2013-02-25 16:21:00,62.0,43.1,30.12,SW,224,6.0,8.0,50,0.00,,,0.00,223,HR-IXP-WINDi_r2_v1.2,2013-02-26 00:21:00,
2013-02-25 16:26:00,61.3,44.0,30.12,SSW,202,3.0,8.0,53,0.00,,,0.00,204,HR-IXP-WINDi_r2_v1.2,2013-02-26 00:26:00,
2013-02-25 16:31:00,61.5,46.1,30.12,South,175,5.0,8.0,57,0.00,,,0.00,186,HR-IXP-WINDi_r2_v1.2,2013-02-26 00:31:00,
2013-02-25 16:36:00,61.8,47.3,30.12,SSW,209,5.0,8.0,59,0.00,,,0.00,169,HR-IXP-WINDi_r2_v1.2,2013-02-26 00:36:00,
2013-02-25 16:41:00,61.5,46.5,30.12,SSW,209,3.0,8.0,58,0.00,,,0.00,153,HR-IXP-WINDi_r2_v1.2,2013-02-26 00:41:00,
2013-02-25 16:47:00,60.8,46.3,30.12,SSW,193,4.0,7.0,59,0.00,,,0.00,98,HR-IXP-WINDi_r2_v1.2,2013-02-26 00:47:00,
2013-02-25 16:52:00,60.9,46.9,30.12,SW,222,4.0,7.0,60,0.00,,,0.00,123,HR-IXP-WINDi_r2_v1.2,2013-02-26 00:52:00,
2013-02-25 16:57:00,60.4,47.7,30.12,SW,217,4.0,7.0,63,0.00,,,0.00,105,HR-IXP-WINDi_r2_v1.2,2013-02-26 00:57:00,
2013-02-25 17:02:00,60.4,48.5,30.11,South,184,4.0,7.0,65,0.00,,,0.00,84,HR-IXP-WINDi_r2_v1.2,2013-02-26 01:02:00,
2013-02-25 17:07:00,60.7,49.2,30.11,SSW,200,4.0,7.0,66,0.00,,,0.00,76,HR-IXP-WINDi_r2_v1.2,2013-02-26 01:07:00,
2013-02-25 17:13:00,60.4,48.5,30.11,SSE,163,1.0,6.0,65,0.00,,,0.00,62,HR-IXP-WINDi_r2_v1.2,2013-02-26 01:13:00,
2013-02-25 17:18:00,60.4,48.5,30.11,South,180,0.0,6.0,65,0.00,,,0.00,47,HR-IXP-WINDi_r2_v1.2,2013-02-26 01:18:00,
2013-02-25 17:23:00,60.4,48.1,30.11,SSW,209,3.0,5.0,64,0.00,,,0.00,37,HR-IXP-WINDi_r2_v1.2,2013-02-26 01:23:00,
2013-02-25 17:28:00,60.2,47.1,30.11,SSW,209,5.0,6.0,62,0.00,,,0.00,25,HR-IXP-WINDi_r2_v1.2,2013-02-26 01:28:00,
2013-02-25 17:33:00,59.8,47.1,30.11,SSW,211,1.0,6.0,63,0.00,,,0.00,16,HR-IXP-WINDi_r2_v1.2,2013-02-26 01:33:00,
2013-02-25 17:39:00,59.5,46.8,30.10,SSW,213,2.0,6.0,63,0.00,,,0.00,9,HR-IXP-WINDi_r2_v1.2,2013-02-26 01:39:00,
2013-02-25 17:44:00,59.2,46.6,30.10,South,188,0.0,5.0,63,0.00,,,0.00,5,HR-IXP-WINDi_r2_v1.2,2013-02-26 01:44:00,
2013-02-25 17:49:00,59.2,41.0,30.10,WSW,250,2.0,5.0,51,0.00,,,0.00,0,HR-IXP-WINDi_r2_v1.2,2013-02-26 01:49:00,
2013-02-25 17:54:00,59.5,39.2,30.10,West,262,3.0,5.0,47,0.00,,,0.00,0,HR-IXP-WINDi_r2_v1.2,2013-02-26 01:54:00,
2013-02-25 17:59:00,59.4,37.4,30.10,West,278,1.0,5.0,44,0.00,,,0.00,0,HR-IXP-WINDi_r2_v1.2,2013-02-26 01:59:00,
2013-02-25 18:05:00,59.2,35.5,30.10,West,273,3.0,6.0,41,0.00,,,0.00,0,HR-IXP-WINDi_r2_v1.2,2013-02-26 02:05:00,
2013-02-25 18:10:00,59.1,36.6,30.10,WSW,256,2.0,6.0,43,0.00,,,0.00,0,HR-IXP-WINDi_r2_v1.2,2013-02-26 02:10:00,
2013-02-25 18:15:00,58.9,35.8,30.10,West,259,1.0,6.0,42,0.00,,,0.00,0,HR-IXP-WINDi_r2_v1.2,2013-02-26 02:15:00,
2013-02-25 18:20:00,58.7,35.0,30.11,West,268,0.0,5.0,41,0.00,,,0.00,0,HR-IXP-WINDi_r2_v1.2,2013-02-26 02:20:00,
2013-02-25 18:25:00,58.5,36.6,30.11,West,268,1.0,4.0,44,0.00,,,0.00,0,HR-IXP-WINDi_r2_v1.2,2013-02-26 02:25:00,
2013-02-25 18:30:00,58.4,37.1,30.11,WSW,257,1.0,5.0,45,0.00,,,0.00,0,HR-IXP-WINDi_r2_v1.2,2013-02-26 02:30:00,
2013-02-25 18:35:00,58.2,36.9,30.11,WSW,257,0.0,5.0,45,0.00,,,0.00,0,HR-IXP-WINDi_r2_v1.2,2013-02-26 02:35:00,
2013-02-25 18:41:00,57.9,37.8,30.11,West,261,3.0,4.0,47,0.00,,,0.00,0,HR-IXP-WINDi_r2_v1.2,2013-02-26 02:41:00,
2013-02-25 18:46:00,57.8,38.2,30.11,West,261,2.0,4.0,48,0.00,,,0.00,0,HR-IXP-WINDi_r2_v1.2,2013-02-26 02:46:00,
2013-02-25 18:51:00,57.5,38.4,30.11,West,261,0.0,3.0,49,0.00,,,0.00,0,HR-IXP-WINDi_r2_v1.2,2013-02-26 02:51:00,
2013-02-25 18:56:00,57.3,39.3,30.11,West,261,0.0,2.0,51,0.00,,,0.00,0,HR-IXP-WINDi_r2_v1.2,2013-02-26 02:56:00,
2013-02-25 19:01:00,57.1,39.1,30.11,West,261,0.0,1.0,51,0.00,,,0.00,0,HR-IXP-WINDi_r2_v1.2,2013-02-26 03:01:00,
2013-02-25 19:07:00,56.9,38.9,30.11,West,261,2.0,2.0,51,0.00,,,0.00,0,HR-IXP-WINDi_r2_v1.2,2013-02-26 03:07:00,
2013-02-25 19:12:00,56.8,39.8,30.12,West,261,0.0,2.0,53,0.00,,,0.00,0,HR-IXP-WINDi_r2_v1.2,2013-02-26 03:12:00,
2013-02-25 19:17:00,56.6,40.1,30.12,West,261,0.0,2.0,54,0.00,,,0.00,0,HR-IXP-WINDi_r2_v1.2,2013-02-26 03:17:00,
2013-02-25 19:22:00,56.1,40.1,30.12,West,261,0.0,2.0,55,0.00,,,0.00,0,HR-IXP-WINDi_r2_v1.2,2013-02-26 03:22:00,
2013-02-25 19:27:00,56.0,40.5,30.12,West,261,0.0,1.0,56,0.00,,,0.00,0,HR-IXP-WINDi_r2_v1.2,2013-02-26 03:27:00,
2013-02-25 19:33:00,55.7,40.7,30.13,West,261,0.0,0.0,57,0.00,,,0.00,0,HR-IXP-WINDi_r2_v1.2,2013-02-26 03:33:00,
2013-02-25 19:38:00,55.4,41.3,30.13,West,261,0.0,0.0,59,0.00,,,0.00,0,HR-IXP-WINDi_r2_v1.2,2013-02-26 03:38:00,
2013-02-25 19:43:00,55.3,42.5,30.13,West,261,0.0,2.0,62,0.00,,,0.00,0,HR-IXP-WINDi_r2_v1.2,2013-02-26 03:43:00,
2013-02-25 19:48:00,55.3,42.5,30.13,West,261,0.0,2.0,62,0.00,,,0.00,0,HR-IXP-WINDi_r2_v1.2,2013-02-26 03:48:00,
2013-02-25 19:53:00,55.1,42.3,30.13,West,261,0.0,1.0,62,0.00,,,0.00,0,HR-IXP-WINDi_r2_v1.2,2013-02-26 03:53:00,
2013-02-25 19:58:00,54.9,42.1,30.13,West,261,0.0,1.0,62,0.00,,,0.00,0,HR-IXP-WINDi_r2_v1.2,2013-02-26 03:58:00,
2013-02-25 20:03:00,54.6,41.8,30.13,West,261,0.0,0.0,62,0.00,,,0.00,0,HR-IXP-WINDi_r2_v1.2,2013-02-26 04:03:00,
2013-02-25 20:09:00,54.1,41.3,30.13,West,261,0.0,0.0,62,0.00,,,0.00,0,HR-IXP-WINDi_r2_v1.2,2013-02-26 04:09:00,
2013-02-25 20:14:00,53.6,41.7,30.13,West,261,0.0,1.0,64,0.00,,,0.00,0,HR-IXP-WINDi_r2_v1.2,2013-02-26 04:14:00,
2013-02-25 20:19:00,53.6,42.5,30.13,West,261,1.0,2.0,66,0.00,,,0.00,0,HR-IXP-WINDi_r2_v1.2,2013-02-26 04:19:00,
2013-02-25 20:24:00,53.6,43.6,30.13,West,261,0.0,2.0,69,0.00,,,0.00,0,HR-IXP-WINDi_r2_v1.2,2013-02-26 04:24:00,
2013-02-25 20:30:00,53.4,44.5,30.13,West,261,2.0,2.0,72,0.00,,,0.00,0,HR-IXP-WINDi_r2_v1.2,2013-02-26 04:30:00,
2013-02-25 20:35:00,53.3,44.8,30.13,West,261,0.0,2.0,73,0.00,,,0.00,0,HR-IXP-WINDi_r2_v1.2,2013-02-26 04:35:00,
2013-02-25 20:40:00,53.1,45.0,30.13,West,261,0.0,2.0,74,0.00,,,0.00,0,HR-IXP-WINDi_r2_v1.2,2013-02-26 04:40:00,
2013-02-25 20:45:00,53.0,45.2,30.12,West,261,0.0,1.0,75,0.00,,,0.00,0,HR-IXP-WINDi_r2_v1.2,2013-02-26 04:45:00,
2013-02-25 20:50:00,52.8,45.4,30.13,West,261,0.0,0.0,76,0.00,,,0.00,0,HR-IXP-WINDi_r2_v1.2,2013-02-26 04:50:00,
2013-02-25 20:55:00,52.7,45.6,30.13,West,261,0.0,0.0,77,0.00,,,0.00,0,HR-IXP-WINDi_r2_v1.2,2013-02-26 04:55:00,
2013-02-25 21:00:00,52.6,45.5,30.12,West,261,0.0,0.0,77,0.00,,,0.00,0,HR-IXP-WINDi_r2_v1.2,2013-02-26 05:00:00,
2013-02-25 21:05:00,52.5,45.4,30.12,West,261,0.0,0.0,77,0.00,,,0.00,0,HR-IXP-WINDi_r2_v1.2,2013-02-26 05:05:00,
2013-02-25 21:10:00,52.2,45.5,30.12,West,261,0.0,0.0,78,0.00,,,0.00,0,HR-IXP-WINDi_r2_v1.2,2013-02-26 05:10:00,
2013-02-25 21:15:00,51.8,45.1,30.12,West,261,0.0,1.0,78,0.00,,,0.00,0,HR-IXP-WINDi_r2_v1.2,2013-02-26 05:15:00,
2013-02-25 21:20:00,51.0,44.7,30.13,West,261,0.0,2.0,79,0.00,,,0.00,0,HR-IXP-WINDi_r2_v1.2,2013-02-26 05:20:00,
2013-02-25 21:25:00,50.7,44.7,30.13,West,261,0.0,2.0,80,0.00,,,0.00,0,HR-IXP-WINDi_r2_v1.2,2013-02-26 05:25:00,
2013-02-25 21:30:00,50.3,44.3,30.13,West,261,0.0,0.0,80,0.00,,,0.00,0,HR-IXP-WINDi_r2_v1.2,2013-02-26 05:30:00,
2013-02-25 21:35:00,50.5,44.8,30.13,West,261,0.0,0.0,81,0.00,,,0.00,0,HR-IXP-WINDi_r2_v1.2,2013-02-26 05:35:00,
2013-02-25 21:40:00,50.0,44.0,30.13,West,261,0.0,1.0,80,0.00,,,0.00,0,HR-IXP-WINDi_r2_v1.2,2013-02-26 05:40:00,
2013-02-25 21:46:00,50.0,44.3,30.13,West,261,0.0,1.0,81,0.00,,,0.00,0,HR-IXP-WINDi_r2_v1.2,2013-02-26 05:46:00,
2013-02-25 21:51:00,50.1,44.4,30.13,West,261,0.0,0.0,81,0.00,,,0.00,0,HR-IXP-WINDi_r2_v1.2,2013-02-26 05:51:00,
2013-02-25 21:56:00,49.7,44.4,30.13,West,261,0.0,0.0,82,0.00,,,0.00,0,HR-IXP-WINDi_r2_v1.2,2013-02-26 05:56:00,
2013-02-25 22:01:00,49.2,43.6,30.13,West,261,0.0,0.0,81,0.00,,,0.00,0,HR-IXP-WINDi_r2_v1.2,2013-02-26 06:01:00,
2013-02-25 22:07:00,49.3,44.0,30.13,West,261,0.0,1.0,82,0.00,,,0.00,0,HR-IXP-WINDi_r2_v1.2,2013-02-26 06:07:00,
2013-02-25 22:12:00,49.4,44.4,30.13,West,261,0.0,2.0,83,0.00,,,0.00,0,HR-IXP-WINDi_r2_v1.2,2013-02-26 06:12:00,
2013-02-25 22:17:00,48.8,44.1,30.13,West,261,0.0,2.0,84,0.00,,,0.00,0,HR-IXP-WINDi_r2_v1.2,2013-02-26 06:17:00,
2013-02-25 22:22:00,49.1,44.4,30.13,West,261,0.0,2.0,84,0.00,,,0.00,0,HR-IXP-WINDi_r2_v1.2,2013-02-26 06:22:00,
2013-02-25 22:27:00,48.7,44.0,30.13,West,261,0.0,1.0,84,0.00,,,0.00,0,HR-IXP-WINDi_r2_v1.2,2013-02-26 06:27:00,
2013-02-25 22:33:00,48.8,44.4,30.13,West,261,0.0,1.0,85,0.00,,,0.00,0,HR-IXP-WINDi_r2_v1.2,2013-02-26 06:33:00,
2013-02-25 22:38:00,48.9,44.5,30.13,West,261,0.0,1.0,85,0.00,,,0.00,0,HR-IXP-WINDi_r2_v1.2,2013-02-26 06:38:00,
2013-02-25 22:43:00,48.8,44.4,30.13,West,261,0.0,1.0,85,0.00,,,0.00,0,HR-IXP-WINDi_r2_v1.2,2013-02-26 06:43:00,
2013-02-25 22:48:00,48.3,44.3,30.13,West,261,0.0,0.0,86,0.00,,,0.00,0,HR-IXP-WINDi_r2_v1.2,2013-02-26 06:48:00,
2013-02-25 22:53:00,48.7,44.6,30.13,West,261,0.0,0.0,86,0.00,,,0.00,0,HR-IXP-WINDi_r2_v1.2,2013-02-26 06:53:00,
2013-02-25 22:58:00,48.8,44.7,30.12,West,261,0.0,0.0,86,0.00,,,0.00,0,HR-IXP-WINDi_r2_v1.2,2013-02-26 06:58:00,
2013-02-25 23:04:00,48.2,43.8,30.12,West,261,0.0,1.0,85,0.00,,,0.00,0,HR-IXP-WINDi_r2_v1.2,2013-02-26 07:04:00,
2013-02-25 23:09:00,47.9,43.9,30.12,West,261,0.0,1.0,86,0.00,,,0.00,0,HR-IXP-WINDi_r2_v1.2,2013-02-26 07:09:00,
2013-02-25 23:14:00,47.8,43.8,30.12,West,261,0.0,0.0,86,0.00,,,0.00,0,HR-IXP-WINDi_r2_v1.2,2013-02-26 07:14:00,
2013-02-25 23:19:00,47.6,43.6,30.12,West,261,0.0,0.0,86,0.00,,,0.00,0,HR-IXP-WINDi_r2_v1.2,2013-02-26 07:19:00,
2013-02-25 23:25:00,47.1,43.1,30.12,West,261,0.0,1.0,86,0.00,,,0.00,0,HR-IXP-WINDi_r2_v1.2,2013-02-26 07:25:00,
2013-02-25 23:30:00,47.0,43.0,30.12,West,261,0.0,1.0,86,0.00,,,0.00,0,HR-IXP-WINDi_r2_v1.2,2013-02-26 07:30:00,
2013-02-25 23:35:00,47.4,43.7,30.12,West,261,0.0,0.0,87,0.00,,,0.00,0,HR-IXP-WINDi_r2_v1.2,2013-02-26 07:35:00,
2013-02-25 23:40:00,47.5,43.8,30.12,West,261,0.0,0.0,87,0.00,,,0.00,0,HR-IXP-WINDi_r2_v1.2,2013-02-26 07:40:00,
2013-02-25 23:46:00,47.5,43.8,30.11,West,261,0.0,0.0,87,0.00,,,0.00,0,HR-IXP-WINDi_r2_v1.2,2013-02-26 07:46:00,
2013-02-25 23:51:00,47.5,43.8,30.11,West,261,0.0,0.0,87,0.00,,,0.00,0,HR-IXP-WINDi_r2_v1.2,2013-02-26 07:51:00,
2013-02-25 23:56:00,47.1,43.4,30.11,West,261,0.0,0.0,87,0.00,,,0.00,0,HR-IXP-WINDi_r2_v1.2,2013-02-26 07:56:00,